createdAt,value
2018-07-23T00:01:49.561Z,21.84
2018-07-23T00:04:17.738Z,21.86
2018-07-23T00:06:45.754Z,21.85
2018-07-23T00:09:13.655Z,21.81
2018-07-23T00:11:41.880Z,21.75
2018-07-23T00:14:09.834Z,21.68
2018-07-23T00:16:37.920Z,21.68
2018-07-23T00:19:06.131Z,21.62
2018-07-23T00:21:33.963Z,21.47
2018-07-23T00:24:01.845Z,21.44
2018-07-23T00:26:30.251Z,21.37
2018-07-23T00:28:58.278Z,21.39
2018-07-23T00:31:26.491Z,21.41
2018-07-23T00:33:55.412Z,21.40
2018-07-23T00:36:23.458Z,21.44
2018-07-23T00:38:51.557Z,21.48
2018-07-23T00:41:20.056Z,21.36
2018-07-23T00:43:48.060Z,21.34
2018-07-23T00:46:16.917Z,21.28
2018-07-23T00:48:45.346Z,21.33
2018-07-23T00:51:13.356Z,21.38
2018-07-23T00:53:41.374Z,21.31
2018-07-23T00:56:10.102Z,21.26
2018-07-23T00:58:38.266Z,21.32
2018-07-23T01:01:06.395Z,21.29
2018-07-23T01:03:34.578Z,21.21
2018-07-23T01:06:02.459Z,21.24
2018-07-23T01:08:30.495Z,21.26
2018-07-23T01:10:58.640Z,21.23
2018-07-23T01:13:26.507Z,21.26
2018-07-23T01:15:54.482Z,21.29
2018-07-23T01:18:22.953Z,21.27
2018-07-23T01:20:50.938Z,21.21
2018-07-23T01:23:18.946Z,21.21
2018-07-23T01:25:46.893Z,21.14
2018-07-23T01:28:15.010Z,21.07
2018-07-23T01:30:42.988Z,20.98
2018-07-23T01:33:10.959Z,21.00
2018-07-23T01:35:38.957Z,21.06
2018-07-23T01:38:06.999Z,21.04
2018-07-23T01:40:34.924Z,21.03
2018-07-23T01:43:02.907Z,21.09
2018-07-23T01:45:30.854Z,21.08
2018-07-23T01:47:59.020Z,21.05
2018-07-23T01:50:26.947Z,20.97
2018-07-23T01:52:55.000Z,20.89
2018-07-23T01:55:22.907Z,20.85
2018-07-23T01:57:50.981Z,20.79
2018-07-23T02:00:19.091Z,20.85
2018-07-23T02:02:47.350Z,20.75
2018-07-23T02:05:15.433Z,20.75
2018-07-23T02:07:43.485Z,20.75
2018-07-23T02:10:11.759Z,20.73
2018-07-23T02:12:39.790Z,20.67
2018-07-23T02:15:07.885Z,20.87
2018-07-23T02:17:36.080Z,20.92
2018-07-23T02:20:04.838Z,20.85
2018-07-23T02:22:32.890Z,20.85
2018-07-23T02:25:00.964Z,20.92
2018-07-23T02:27:29.050Z,20.88
2018-07-23T02:29:57.050Z,20.92
2018-07-23T02:32:25.092Z,20.96
2018-07-23T02:34:54.338Z,20.92
2018-07-23T02:37:22.346Z,20.94
2018-07-23T02:39:50.366Z,20.96
2018-07-23T02:42:18.203Z,20.83
2018-07-23T02:44:46.090Z,20.75
2018-07-23T02:47:14.475Z,20.76
2018-07-23T02:49:42.475Z,20.80
2018-07-23T02:52:10.561Z,20.85
2018-07-23T02:54:38.655Z,20.87
2018-07-23T02:57:06.650Z,20.92
2018-07-23T02:59:34.779Z,20.94
2018-07-23T03:02:03.186Z,20.94
2018-07-23T03:04:31.183Z,20.90
2018-07-23T03:06:59.120Z,20.91
2018-07-23T03:09:27.163Z,20.88
2018-07-23T03:11:54.987Z,20.89
2018-07-23T03:14:22.899Z,20.87
2018-07-23T03:16:51.037Z,20.86
2018-07-23T03:19:19.108Z,20.83
2018-07-23T03:21:47.162Z,20.85
2018-07-23T03:24:15.258Z,20.90
2018-07-23T03:26:43.344Z,20.92
2018-07-23T03:29:11.410Z,20.99
2018-07-23T03:31:39.884Z,21.09
2018-07-23T03:34:07.834Z,21.14
2018-07-23T03:36:35.670Z,21.26
2018-07-23T03:41:56.652Z,21.50
2018-07-23T03:44:24.465Z,21.60
2018-07-23T03:46:52.334Z,21.76
2018-07-23T03:49:20.547Z,21.95
2018-07-23T03:51:48.448Z,22.11
2018-07-23T03:54:16.474Z,22.26
2018-07-23T03:56:44.435Z,22.46
2018-07-23T03:59:12.230Z,22.66
2018-07-23T04:01:40.115Z,22.77
2018-07-23T04:04:08.769Z,22.92
2018-07-23T04:06:36.720Z,23.02
2018-07-23T04:09:07.199Z,23.10
2018-07-23T04:11:35.415Z,23.12
2018-07-23T04:14:03.383Z,23.24
2018-07-23T04:16:31.203Z,23.33
2018-07-23T04:18:59.139Z,23.42
2018-07-23T04:21:27.951Z,23.54
2018-07-23T04:23:55.812Z,23.49
2018-07-23T04:26:23.691Z,23.82
2018-07-23T04:28:51.503Z,23.94
2018-07-23T04:31:19.362Z,24.06
2018-07-23T04:33:48.688Z,24.21
2018-07-23T04:36:17.601Z,24.44
2018-07-23T04:38:53.951Z,24.45
2018-07-23T04:41:22.869Z,24.69
2018-07-23T04:43:50.856Z,24.74
2018-07-23T04:46:18.696Z,24.90
2018-07-23T04:48:50.492Z,24.97
2018-07-23T04:51:21.898Z,25.14
2018-07-23T04:53:49.869Z,25.13
2018-07-23T04:56:17.689Z,25.00
2018-07-23T04:58:45.747Z,25.41
2018-07-23T05:01:13.631Z,25.62
2018-07-23T05:03:41.412Z,25.86
2018-07-23T05:06:09.412Z,25.92
2018-07-23T05:08:37.207Z,26.13
2018-07-23T05:11:04.993Z,26.40
2018-07-23T05:13:32.962Z,26.48
2018-07-23T05:16:00.743Z,26.65
2018-07-23T05:18:28.528Z,26.18
2018-07-23T05:20:56.443Z,26.40
2018-07-23T05:23:24.331Z,26.59
2018-07-23T05:25:52.202Z,26.68
2018-07-23T05:28:20.190Z,26.99
2018-07-23T05:30:48.115Z,27.11
2018-07-23T05:33:16.078Z,27.22
2018-07-23T05:35:43.996Z,27.67
2018-07-23T05:38:11.878Z,27.86
2018-07-23T05:40:39.988Z,28.17
2018-07-23T05:43:08.302Z,28.11
2018-07-23T05:45:36.141Z,28.11
2018-07-23T05:48:04.058Z,27.95
2018-07-23T05:50:32.139Z,28.22
2018-07-23T05:52:59.950Z,28.23
2018-07-23T05:55:27.846Z,28.44
2018-07-23T05:57:56.301Z,28.79
2018-07-23T06:00:24.113Z,29.23
2018-07-23T06:02:51.959Z,29.42
2018-07-23T06:05:19.878Z,28.93
2018-07-23T06:07:47.691Z,29.11
2018-07-23T06:10:15.552Z,29.24
2018-07-23T06:12:43.498Z,29.38
2018-07-23T06:15:11.576Z,28.96
2018-07-23T06:17:39.517Z,28.44
2018-07-23T06:20:08.286Z,27.97
2018-07-23T06:22:36.183Z,27.84
2018-07-23T06:25:04.391Z,27.50
2018-07-23T06:27:32.302Z,27.36
2018-07-23T06:30:00.194Z,27.27
2018-07-23T06:32:28.003Z,27.16
2018-07-23T06:34:55.971Z,27.09
2018-07-23T06:37:23.899Z,27.07
2018-07-23T06:39:51.728Z,27.02
2018-07-23T06:42:19.569Z,27.18
2018-07-23T06:44:47.482Z,27.14
2018-07-23T06:47:15.357Z,27.14
2018-07-23T06:49:43.392Z,27.21
2018-07-23T06:52:11.169Z,27.21
2018-07-23T06:54:39.011Z,27.16
2018-07-23T06:57:07.003Z,27.12
2018-07-23T06:59:35.566Z,27.06
2018-07-23T07:02:03.722Z,27.16
2018-07-23T07:04:32.118Z,27.21
2018-07-23T07:07:00.070Z,27.28
2018-07-23T07:09:27.967Z,27.34
2018-07-23T07:11:55.887Z,27.40
2018-07-23T07:14:23.739Z,27.38
2018-07-23T07:16:51.551Z,27.40
2018-07-23T07:19:19.618Z,27.51
2018-07-23T07:21:47.470Z,27.63
2018-07-23T07:24:15.310Z,27.75
2018-07-23T07:26:43.270Z,27.82
2018-07-23T07:29:11.191Z,27.89
2018-07-23T07:31:38.983Z,28.07
2018-07-23T07:34:06.815Z,28.16
2018-07-23T07:36:34.755Z,28.33
2018-07-23T07:39:03.069Z,28.36
2018-07-23T07:41:31.302Z,28.62
2018-07-23T07:43:59.123Z,28.53
2018-07-23T07:46:27.058Z,28.59
2018-07-23T07:48:55.310Z,28.57
2018-07-23T07:51:23.126Z,28.63
2018-07-23T07:53:50.862Z,28.72
2018-07-23T07:56:19.095Z,28.79
2018-07-23T07:58:46.865Z,28.86
2018-07-23T08:01:14.678Z,28.80
2018-07-23T08:03:42.613Z,28.96
2018-07-23T08:06:10.459Z,28.97
2018-07-23T08:08:38.346Z,29.05
2018-07-23T08:11:06.694Z,29.07
2018-07-23T08:13:34.588Z,29.13
2018-07-23T08:16:02.496Z,29.22
2018-07-23T08:18:30.555Z,29.32
2018-07-23T08:20:58.420Z,29.48
2018-07-23T08:23:26.306Z,29.38
2018-07-23T08:25:54.368Z,29.32
2018-07-23T08:28:22.134Z,29.38
2018-07-23T08:30:50.117Z,29.48
2018-07-23T08:33:18.033Z,29.63
2018-07-23T08:35:45.917Z,29.81
2018-07-23T08:38:13.806Z,29.84
2018-07-23T08:40:42.091Z,29.80
2018-07-23T08:43:09.940Z,29.82
2018-07-23T08:45:38.060Z,29.91
2018-07-23T08:48:06.142Z,30.09
2018-07-23T08:50:34.243Z,30.10
2018-07-23T08:53:02.075Z,30.15
2018-07-23T08:55:30.025Z,30.33
2018-07-23T08:57:57.909Z,30.37
2018-07-23T09:00:25.802Z,30.45
2018-07-23T09:02:54.329Z,30.51
2018-07-23T09:05:22.356Z,30.63
2018-07-23T09:07:50.355Z,30.65
2018-07-23T09:10:18.316Z,30.71
2018-07-23T09:12:46.166Z,30.87
2018-07-23T09:15:14.066Z,30.81
2018-07-23T09:17:42.231Z,30.89
2018-07-23T09:20:10.100Z,30.90
2018-07-23T09:22:37.983Z,30.99
2018-07-23T09:25:06.011Z,30.99
2018-07-23T09:27:33.995Z,31.10
2018-07-23T09:30:01.905Z,31.25
2018-07-23T09:32:29.741Z,31.25
2018-07-23T09:34:57.631Z,31.31
2018-07-23T09:37:25.651Z,31.34
2018-07-23T09:39:54.621Z,31.35
2018-07-23T09:42:22.688Z,31.18
2018-07-23T09:44:50.639Z,31.35
2018-07-23T09:47:18.544Z,31.44
2018-07-23T09:49:46.378Z,31.45
2018-07-23T09:52:14.195Z,31.52
2018-07-23T09:54:42.536Z,31.62
2018-07-23T09:57:10.325Z,31.81
2018-07-23T09:59:38.235Z,31.97
2018-07-23T10:02:06.410Z,32.05
2018-07-23T10:04:34.352Z,31.92
2018-07-23T10:07:02.201Z,32.00
2018-07-23T10:09:30.140Z,32.11
2018-07-23T10:11:58.111Z,32.29
2018-07-23T10:14:25.990Z,32.26
2018-07-23T10:16:54.568Z,32.43
2018-07-23T10:19:22.436Z,32.54
2018-07-23T10:21:50.376Z,32.43
2018-07-23T10:24:18.727Z,32.30
2018-07-23T10:26:46.614Z,32.08
2018-07-23T10:29:14.389Z,32.33
2018-07-23T10:31:42.264Z,32.52
2018-07-23T10:34:10.058Z,32.52
2018-07-23T10:36:37.904Z,32.28
2018-07-23T10:39:08.198Z,32.47
2018-07-23T12:07:12.686Z,29.48
2018-07-23T12:09:40.390Z,29.86
2018-07-23T12:12:08.093Z,30.27
2018-07-23T12:14:36.434Z,30.72
2018-07-23T12:17:04.339Z,30.61
2018-07-23T12:19:32.035Z,31.27
2018-07-23T12:21:59.813Z,31.75
2018-07-23T12:24:27.535Z,31.95
2018-07-23T12:26:55.275Z,31.98
2018-07-23T12:29:23.397Z,31.72
2018-07-23T12:31:51.163Z,31.64
2018-07-23T12:34:18.978Z,31.61
2018-07-23T12:36:46.749Z,31.59
2018-07-23T12:39:14.449Z,31.57
2018-07-23T12:41:42.367Z,31.56
2018-07-23T12:44:10.725Z,31.54
2018-07-23T12:46:38.600Z,31.52
2018-07-23T12:49:06.574Z,31.77
2018-07-23T12:51:34.326Z,31.90
2018-07-23T12:54:02.293Z,32.13
2018-07-23T12:56:30.034Z,32.21
2018-07-23T12:58:57.819Z,32.21
2018-07-23T13:01:25.493Z,32.32
2018-07-23T13:03:53.255Z,32.04
2018-07-23T13:06:21.529Z,31.79
2018-07-23T13:08:49.358Z,31.39
2018-07-23T13:11:17.066Z,30.67
2018-07-23T13:13:45.174Z,30.23
2018-07-23T13:16:12.973Z,30.19
2018-07-23T13:18:40.710Z,30.54
2018-07-23T13:21:09.479Z,30.76
2018-07-23T13:23:37.331Z,30.79
2018-07-23T13:26:05.330Z,30.68
2018-07-23T13:28:33.457Z,30.38
2018-07-23T13:31:01.177Z,30.32
2018-07-23T13:33:28.834Z,30.22
2018-07-23T13:35:57.109Z,30.06
2018-07-23T13:38:24.960Z,29.74
2018-07-23T13:40:52.553Z,29.65
2018-07-23T13:43:20.766Z,29.63
2018-07-23T13:45:48.536Z,29.59
2018-07-23T13:48:16.278Z,29.56
2018-07-23T13:50:44.571Z,29.07
2018-07-23T13:53:12.338Z,29.07
2018-07-23T13:55:40.107Z,28.93
2018-07-23T13:58:07.880Z,27.81
2018-07-23T14:00:35.582Z,26.64
2018-07-23T14:03:03.334Z,25.75
2018-07-23T14:05:33.331Z,25.25
2018-07-23T14:08:01.074Z,24.82
2018-07-23T14:10:28.750Z,24.56
2018-07-23T14:12:56.541Z,24.47
2018-07-23T14:15:24.273Z,24.56
2018-07-23T14:17:52.043Z,24.76
2018-07-23T14:20:19.811Z,24.89
2018-07-23T14:22:47.503Z,24.89
2018-07-23T14:25:15.189Z,24.52
2018-07-23T14:27:42.954Z,24.05
2018-07-23T14:30:10.714Z,23.70
2018-07-23T14:32:38.484Z,23.54
2018-07-23T14:35:06.383Z,23.44
2018-07-23T14:37:34.246Z,23.38
2018-07-23T14:40:01.962Z,23.36
2018-07-23T14:42:30.139Z,23.38
2018-07-23T14:44:57.970Z,23.52
2018-07-23T14:47:25.807Z,23.81
2018-07-23T14:49:53.587Z,23.99
2018-07-23T14:52:21.350Z,24.34
2018-07-23T14:54:49.133Z,24.53
2018-07-23T14:57:16.940Z,24.65
2018-07-23T14:59:44.662Z,24.78
2018-07-23T15:02:12.407Z,24.85
2018-07-23T15:04:40.686Z,24.98
2018-07-23T15:07:08.685Z,25.11
2018-07-23T15:09:36.961Z,25.16
2018-07-23T15:12:04.868Z,25.21
2018-07-23T15:14:32.598Z,25.35
2018-07-23T15:17:00.499Z,25.45
2018-07-23T15:19:28.343Z,25.52
2018-07-23T15:21:56.121Z,25.54
2018-07-23T15:24:24.130Z,25.51
2018-07-23T15:26:52.285Z,25.46
2018-07-23T15:29:20.288Z,25.50
2018-07-23T15:31:48.312Z,25.50
2018-07-23T15:34:16.701Z,25.58
2018-07-23T15:36:44.454Z,25.65
2018-07-23T15:39:12.132Z,25.77
2018-07-23T15:41:39.949Z,25.83
2018-07-23T15:44:07.874Z,25.83
2018-07-23T15:46:35.657Z,25.92
2018-07-23T15:49:03.631Z,25.98
2018-07-23T15:51:31.341Z,26.06
2018-07-23T15:53:59.200Z,25.96
2018-07-23T15:56:27.052Z,25.97
2018-07-23T15:58:54.752Z,26.00
2018-07-23T16:01:22.486Z,26.10
2018-07-23T16:03:50.397Z,26.19
2018-07-23T16:06:18.160Z,26.28
2018-07-23T16:08:45.885Z,26.27
2018-07-23T16:11:14.118Z,26.32
2018-07-23T16:13:41.883Z,26.31
2018-07-23T16:16:09.668Z,26.35
2018-07-23T16:18:37.838Z,26.33
2018-07-23T16:21:05.615Z,26.27
2018-07-23T16:23:33.237Z,26.19
2018-07-23T16:26:01.063Z,25.60
2018-07-23T16:28:28.781Z,25.59
2018-07-23T16:30:56.531Z,25.68
2018-07-23T16:33:24.183Z,25.72
2018-07-23T16:35:51.866Z,25.65
2018-07-23T16:38:19.634Z,25.53
2018-07-23T16:40:47.792Z,25.59
2018-07-23T16:43:15.568Z,25.62
2018-07-23T16:45:43.324Z,25.34
2018-07-23T16:48:11.292Z,25.16
2018-07-23T16:50:39.112Z,25.30
2018-07-23T16:53:07.514Z,25.51
2018-07-23T16:55:35.391Z,25.56
2018-07-23T16:58:03.169Z,25.57
2018-07-23T17:00:30.966Z,25.16
2018-07-23T17:02:59.205Z,24.79
2018-07-23T17:05:27.012Z,24.66
2018-07-23T17:07:54.940Z,24.49
2018-07-23T17:10:22.911Z,24.26
2018-07-23T17:12:50.686Z,24.23
2018-07-23T17:15:18.493Z,24.39
2018-07-23T17:17:46.347Z,24.45
2018-07-23T17:20:14.169Z,24.18
2018-07-23T17:22:41.998Z,24.02
2018-07-23T17:25:09.909Z,24.00
2018-07-23T17:27:37.726Z,24.02
2018-07-23T17:30:05.656Z,23.81
2018-07-23T17:32:33.729Z,23.67
2018-07-23T17:35:01.605Z,23.81
2018-07-23T17:37:29.524Z,23.74
2018-07-23T17:39:57.639Z,23.67
2018-07-23T17:42:25.542Z,23.69
2018-07-23T17:44:53.584Z,23.68
2018-07-23T17:47:21.533Z,23.59
2018-07-23T17:49:49.248Z,23.52
2018-07-23T17:52:17.165Z,23.50
2018-07-23T17:54:45.162Z,23.48
2018-07-23T17:57:13.010Z,23.49
2018-07-23T17:59:40.913Z,23.54
2018-07-23T18:02:09.015Z,23.52
2018-07-23T18:04:36.915Z,23.57
2018-07-23T18:07:04.816Z,23.53
2018-07-23T18:09:32.767Z,23.48
2018-07-23T18:12:00.690Z,23.32
2018-07-23T18:14:28.631Z,23.43
2018-07-23T18:16:56.530Z,23.31
2018-07-23T18:19:24.282Z,23.15
2018-07-23T18:21:52.146Z,23.13
2018-07-23T18:24:20.159Z,23.07
2018-07-23T18:26:47.935Z,22.85
2018-07-23T18:29:15.803Z,22.94
2018-07-23T18:31:43.978Z,23.00
2018-07-23T18:34:11.859Z,23.00
2018-07-23T18:36:39.658Z,22.93
2018-07-23T18:39:09.737Z,22.87
2018-07-23T18:41:37.680Z,22.80
2018-07-23T18:44:05.506Z,22.75
2018-07-23T18:46:33.531Z,22.55
2018-07-23T18:49:25.725Z,22.64
2018-07-23T18:51:54.708Z,22.62
2018-07-23T18:54:23.857Z,22.58
2018-07-23T18:56:57.237Z,22.48
2018-07-23T18:59:25.044Z,22.36
2018-07-23T19:01:53.869Z,22.37
2018-07-23T19:04:21.715Z,22.37
2018-07-23T19:06:49.920Z,22.40
2018-07-23T19:09:18.755Z,22.00
2018-07-23T19:11:47.765Z,21.60
2018-07-23T19:14:16.054Z,21.26
2018-07-23T19:16:44.274Z,21.05
2018-07-23T19:19:12.358Z,21.16
2018-07-23T19:21:40.301Z,21.30
2018-07-23T19:24:08.115Z,21.28
2018-07-23T19:26:36.183Z,21.31
2018-07-23T19:29:04.235Z,21.34
2018-07-23T19:31:32.075Z,21.33
2018-07-23T19:34:01.513Z,21.33
2018-07-23T19:36:29.718Z,21.39
2018-07-23T19:38:57.867Z,21.36
2018-07-23T19:41:26.524Z,21.30
2018-07-23T19:43:54.548Z,21.31
2018-07-23T19:46:22.632Z,21.42
2018-07-23T19:48:50.704Z,21.39
2018-07-23T19:51:18.835Z,21.32
2018-07-23T19:53:47.070Z,21.20
2018-07-23T19:56:15.879Z,21.27
2018-07-23T19:58:43.783Z,21.32
2018-07-23T20:01:11.718Z,21.18
2018-07-23T20:03:39.550Z,21.03
2018-07-23T20:06:07.347Z,20.99
2018-07-23T20:08:35.259Z,20.96
2018-07-23T20:11:03.198Z,20.96
2018-07-23T20:13:31.115Z,21.01
2018-07-23T20:15:58.844Z,21.02
2018-07-23T20:18:26.938Z,21.03
2018-07-23T20:20:54.895Z,20.99
2018-07-23T20:23:23.136Z,20.94
2018-07-23T20:25:51.043Z,20.86
2018-07-23T20:28:18.944Z,20.78
2018-07-23T20:30:46.822Z,20.71
2018-07-23T20:33:15.185Z,20.66
2018-07-23T20:35:43.086Z,20.72
2018-07-23T20:38:10.982Z,20.73
2018-07-23T20:40:38.844Z,20.74
2018-07-23T20:43:06.716Z,20.78
2018-07-23T20:45:34.469Z,20.79
2018-07-23T20:48:02.775Z,20.85
2018-07-23T20:50:31.613Z,20.87
2018-07-23T20:52:59.521Z,20.88
2018-07-23T20:55:27.609Z,20.87
2018-07-23T20:57:55.447Z,20.88
2018-07-23T21:00:23.456Z,20.86
2018-07-23T21:02:51.678Z,20.80
2018-07-23T21:05:19.542Z,20.73
2018-07-23T21:07:47.410Z,20.76
2018-07-23T21:10:15.411Z,20.80
2018-07-23T21:12:43.283Z,20.76
2018-07-23T21:15:11.091Z,20.76
2018-07-23T21:17:41.204Z,20.75
2018-07-23T21:20:09.538Z,20.67
2018-07-23T21:22:37.741Z,20.67
2018-07-23T21:25:06.419Z,20.65
2018-07-23T21:27:34.438Z,20.70
2018-07-23T21:30:02.407Z,20.75
2018-07-23T21:32:30.728Z,20.88
2018-07-23T21:34:58.468Z,21.04
2018-07-23T21:37:26.332Z,21.08
2018-07-23T21:39:54.268Z,21.12
2018-07-23T21:42:22.064Z,21.14
2018-07-23T21:44:49.977Z,21.04
2018-07-23T21:47:18.100Z,21.01
2018-07-23T21:49:45.963Z,21.06
2018-07-23T21:52:13.848Z,21.07
2018-07-23T21:54:41.772Z,21.07
2018-07-23T21:57:09.712Z,21.04
2018-07-23T21:59:37.559Z,21.01
2018-07-23T22:02:06.144Z,21.09
2018-07-23T22:04:33.927Z,21.06
2018-07-23T22:07:01.795Z,21.03
2018-07-23T22:09:29.833Z,21.03
2018-07-23T22:11:57.599Z,20.99
2018-07-23T22:14:25.378Z,20.96
2018-07-23T22:16:53.216Z,20.94
2018-07-23T22:19:21.041Z,20.85
2018-07-23T22:21:48.912Z,20.95
2018-07-23T22:24:16.853Z,20.98
2018-07-23T22:26:44.699Z,20.90
2018-07-23T22:29:12.534Z,20.91
2018-07-23T22:31:40.428Z,21.06
2018-07-23T22:34:08.372Z,20.97
2018-07-23T22:36:36.188Z,20.86
2018-07-23T22:39:07.485Z,20.91
2018-07-23T22:41:35.296Z,20.92
2018-07-23T22:44:04.125Z,20.88
2018-07-23T22:46:32.004Z,20.89
2018-07-23T22:49:00.866Z,20.89
2018-07-23T22:51:28.786Z,20.96
2018-07-23T22:53:56.722Z,20.92
2018-07-23T22:56:24.689Z,20.89
2018-07-23T22:58:52.404Z,20.94
2018-07-23T23:01:20.932Z,20.94
2018-07-23T23:03:48.830Z,20.95
2018-07-23T23:06:16.720Z,20.89
2018-07-23T23:08:44.797Z,20.96
2018-07-23T23:11:12.530Z,21.03
2018-07-23T23:13:40.349Z,20.98
2018-07-23T23:16:08.663Z,21.02
2018-07-23T23:18:36.581Z,21.02
2018-07-23T23:21:04.503Z,21.06
2018-07-23T23:23:32.306Z,21.06
2018-07-23T23:26:00.151Z,21.06
2018-07-23T23:28:28.016Z,21.05
2018-07-23T23:30:55.815Z,21.07
2018-07-23T23:33:23.636Z,21.04
2018-07-23T23:35:51.545Z,21.04
2018-07-23T23:38:19.616Z,21.05
2018-07-23T23:40:47.419Z,21.03
2018-07-23T23:43:15.168Z,21.03
2018-07-23T23:45:43.003Z,21.04
2018-07-23T23:48:10.803Z,21.02
2018-07-23T23:50:38.622Z,21.01
2018-07-23T23:53:06.429Z,21.03
2018-07-23T23:55:34.290Z,20.99
2018-07-23T23:58:02.105Z,20.99
